My Meet Scores
Jayla Lubbers, Flipstar Gymnastics Academy - MyMeetScores.com
Top100 | Top Teams | Upcoming Meets | Completed Meets | Latest | Add Scores | Help| Support | Bookmark and Share

Jayla Lubbers, Flipstar Gymnastics Academy
Personal Bests
LevelVault BarsBeamFloorAA
39.5009.300 8.8758.90036.175
48.9758.350 8.5008.95033.925
69.1508.225 9.1259.70035.975
79.6258.375 9.2259.35036.200
Meet Scores
Date Meet Team Session Level Division Vault Bars Beam Floor AA
2022-04-01 Level 6-7-8 State 2022 Flip Star Gymnastics Academy 06 7 Jr B 9.625 1 7.775 22 8.250 18 9.350 16 35.000 20
2022-03-10 Lucky Invite Flip Star Gymnastics Academy A02 7 Middle 8.600 18 6.450 23 8.750 17 9.350 17 33.150 22
2021-12-10 Crossroads Classic Flip Star Gymnastics Academy 4 7 Junior 9.300 5 8.375 12 9.225 7 9.300 12T 36.200 9
2021-04-15 Illinois level 6 & Xcel Silver State Champion Flip Star Gymnastics Academy 08 6 Multiple 9.150 8T 8.225 52 9.125 33T 9.475 19T 35.975 34
2021-03-12 LUCKY INVITATIONAL Flip Star Gymnastics Academy A03 6 Jr B 8.700 7T 8.150 20 9.000 12 9.700 1 35.550 14
2019-03-22 Illinois Gymnastics State Championships Flipstar Gymnastics Academy 6 4 YT C 8.825 14T 8.350 21T 8.200 26 8.550 26T 33.925 26
2019-03-01 2019 MEGA Spring Invite Flipstar Gymnastics Academy All 4 All Ages 8.975 26T 7.650 120T 8.225 119 8.400 115T 33.250 108
2019-02-23 Kinetic Classic 2019 Flipstar Gymnastics Academy 1 4 Middle 8.600 13 7.900 31 8.500 32 8.800 17T 33.800 30
2019-02-08 Midwest Twisters Harley Meet Womens Flipstar Gymnastics Academy T09 4 9b 8.225 11 7.500 10T 8.375 11 8.350 10 32.450 10
2019-01-25 King Arthur Invitational Flipstar Gymnastics Academy 1 4 Jr C 8.275 12 7.550 15 7.750 15 8.500 13 32.075 14
2019-01-11 Circle of Stars Gymnastics Flipstar Gymnastics Academy C07 4 Junior B 8.950 9 8.075 28 8.350 24T 8.550 26 33.925 26
2018-12-07 Horton Invite Flipstar Gymnastics Academy 1 4 Yth A 8.325 16 8.300 18 7.050 21 8.950 11T 32.625 20
2018-05-03 Illinois USA Gymnastics Level 3 State Championships Flipstar Gymnastics Academy 4 3 Youth E 9.500 14T 8.900 21 8.875 18 8.900 23T 36.175 21
2018-02-23 Kinetic Classic Flipstar Gymnastics Academy 4 3 Middle 8.750 67T 9.300 27T 8.800 66 8.650 82 35.500 66
2018-02-16 Big Classic Flipstar Gymnastics Academy 6B 3 Child B 8.850 16 9.000 14 8.525 17 8.450 14 34.825 16
2018-02-09 IGI Chicago Style Gymnastics Meet Flipstar Gymnastics Academy 42 3 631 LaSalle L3 C 8.600 22 8.900 14 7.650 24 8.825 20 33.975 24
2018-01-26 King Arthur Invitational Flipstar Gymnastics Academy 5 3 SR A 9.500 5T 8.050 16 8.475 13 8.450 15 34.475 14
2018-01-19 Sand Dollar/ Whitlow Invitational Flipstar Gymnastics Academy E11 3 Jr B 8.500 12 8.200 10 8.625 10 8.275 10 33.600 9
2017-12-08 Horton Invite At IWU Shirk Center Flipstar Gymnastics Academy 4 3 Yth B 9.400 8 8.600 12 7.800 19 8.325 10T 34.125 15
2017-11-17 SCGA Classic Flipstar Gymnastics Academy 1 3 JrB 9.400 1 7.850 13 7.725 14 8.350 13 33.325 13
2017-11-10 Illinois NAWGJ Judges Cup 2017 Flipstar Gymnastics Academy S6 3 All Ages 9.225 24T 7.800 47T 7.650 47 8.700 42T 33.375 48T
Get your scores on
a t-shirt, pin, or hoodie